sensor_id;sensor_type;location;lat;lon;timestamp;temperature;humidity
56103;DHT22;41970;48.774;9.280;2023-08-30T00:00:46;14.90;99.90
56103;DHT22;41970;48.774;9.280;2023-08-30T00:03:12;14.90;99.90
56103;DHT22;41970;48.774;9.280;2023-08-30T00:05:41;14.90;99.90
56103;DHT22;41970;48.774;9.280;2023-08-30T00:08:08;14.90;99.90
56103;DHT22;41970;48.774;9.280;2023-08-30T00:10:34;14.90;99.90
56103;DHT22;41970;48.774;9.280;2023-08-30T00:13:01;14.90;99.90
56103;DHT22;41970;48.774;9.280;2023-08-30T00:15:27;14.90;99.90
56103;DHT22;41970;48.774;9.280;2023-08-30T00:17:53;14.90;99.90
56103;DHT22;41970;48.774;9.280;2023-08-30T00:20:20;14.90;99.90
56103;DHT22;41970;48.774;9.280;2023-08-30T00:22:46;14.90;99.90
56103;DHT22;41970;48.774;9.280;2023-08-30T00:25:12;14.90;99.90
56103;DHT22;41970;48.774;9.280;2023-08-30T00:27:38;14.90;99.90
56103;DHT22;41970;48.774;9.280;2023-08-30T00:30:04;14.90;99.90
56103;DHT22;41970;48.774;9.280;2023-08-30T00:32:30;15.00;99.90
56103;DHT22;41970;48.774;9.280;2023-08-30T00:34:56;15.00;99.90
56103;DHT22;41970;48.774;9.280;2023-08-30T00:37:23;15.00;99.90
56103;DHT22;41970;48.774;9.280;2023-08-30T00:40:08;15.00;99.90
56103;DHT22;41970;48.774;9.280;2023-08-30T00:42:33;15.00;99.90
56103;DHT22;41970;48.774;9.280;2023-08-30T00:44:59;14.90;99.90
56103;DHT22;41970;48.774;9.280;2023-08-30T00:47:25;15.00;99.90
56103;DHT22;41970;48.774;9.280;2023-08-30T00:49:51;14.90;99.90
56103;DHT22;41970;48.774;9.280;2023-08-30T00:52:17;14.90;99.90
56103;DHT22;41970;48.774;9.280;2023-08-30T00:54:43;14.90;99.90
56103;DHT22;41970;48.774;9.280;2023-08-30T00:57:09;15.00;99.90
56103;DHT22;41970;48.774;9.280;2023-08-30T00:59:35;14.90;99.90
56103;DHT22;41970;48.774;9.280;2023-08-30T01:02:01;14.90;99.90
56103;DHT22;41970;48.774;9.280;2023-08-30T01:04:27;15.00;99.90
56103;DHT22;41970;48.774;9.280;2023-08-30T01:06:53;15.00;99.90
56103;DHT22;41970;48.774;9.280;2023-08-30T01:09:19;15.10;99.90
56103;DHT22;41970;48.774;9.280;2023-08-30T01:17:16;15.10;99.90
56103;DHT22;41970;48.774;9.280;2023-08-30T01:20:01;15.00;99.90
56103;DHT22;41970;48.774;9.280;2023-08-30T01:28:06;15.00;99.90
56103;DHT22;41970;48.774;9.280;2023-08-30T01:30:34;14.90;99.90
56103;DHT22;41970;48.774;9.280;2023-08-30T01:33:04;14.90;99.90
56103;DHT22;41970;48.774;9.280;2023-08-30T01:35:32;14.90;99.90
56103;DHT22;41970;48.774;9.280;2023-08-30T01:38:05;15.00;99.90
56103;DHT22;41970;48.774;9.280;2023-08-30T01:40:35;14.90;99.90
56103;DHT22;41970;48.774;9.280;2023-08-30T01:43:02;14.90;99.90
56103;DHT22;41970;48.774;9.280;2023-08-30T01:45:31;14.90;99.90
56103;DHT22;41970;48.774;9.280;2023-08-30T01:47:57;14.90;99.90
56103;DHT22;41970;48.774;9.280;2023-08-30T01:50:23;14.90;99.90
56103;DHT22;41970;48.774;9.280;2023-08-30T01:52:50;14.90;99.90
56103;DHT22;41970;48.774;9.280;2023-08-30T01:55:18;14.90;99.90
56103;DHT22;41970;48.774;9.280;2023-08-30T01:57:45;14.90;99.90
56103;DHT22;41970;48.774;9.280;2023-08-30T02:00:12;14.90;99.90
56103;DHT22;41970;48.774;9.280;2023-08-30T02:02:38;14.80;99.90
56103;DHT22;41970;48.774;9.280;2023-08-30T02:05:04;14.80;99.90
56103;DHT22;41970;48.774;9.280;2023-08-30T02:07:43;14.80;99.90
56103;DHT22;41970;48.774;9.280;2023-08-30T02:10:16;14.80;99.90
56103;DHT22;41970;48.774;9.280;2023-08-30T02:12:49;14.80;99.90
56103;DHT22;41970;48.774;9.280;2023-08-30T02:15:16;14.70;99.90
56103;DHT22;41970;48.774;9.280;2023-08-30T02:17:43;14.70;99.90
56103;DHT22;41970;48.774;9.280;2023-08-30T02:20:09;14.70;99.90
56103;DHT22;41970;48.774;9.280;2023-08-30T02:22:35;14.70;99.90
56103;DHT22;41970;48.774;9.280;2023-08-30T02:25:02;14.70;99.90
56103;DHT22;41970;48.774;9.280;2023-08-30T02:27:33;14.70;99.90
56103;DHT22;41970;48.774;9.280;2023-08-30T02:29:59;14.60;99.90
56103;DHT22;41970;48.774;9.280;2023-08-30T02:32:25;14.60;99.90
56103;DHT22;41970;48.774;9.280;2023-08-30T02:34:52;14.60;99.90
56103;DHT22;41970;48.774;9.280;2023-08-30T02:37:18;14.60;99.90
56103;DHT22;41970;48.774;9.280;2023-08-30T02:39:44;14.60;99.90
56103;DHT22;41970;48.774;9.280;2023-08-30T02:42:10;14.60;99.90
56103;DHT22;41970;48.774;9.280;2023-08-30T02:44:35;14.70;99.90
56103;DHT22;41970;48.774;9.280;2023-08-30T02:47:01;14.70;99.90
56103;DHT22;41970;48.774;9.280;2023-08-30T02:49:27;14.70;99.90
56103;DHT22;41970;48.774;9.280;2023-08-30T02:51:53;14.70;99.90
56103;DHT22;41970;48.774;9.280;2023-08-30T02:54:19;14.80;99.90
56103;DHT22;41970;48.774;9.280;2023-08-30T02:56:45;14.80;99.90
56103;DHT22;41970;48.774;9.280;2023-08-30T02:59:11;14.80;99.90
56103;DHT22;41970;48.774;9.280;2023-08-30T03:01:37;14.90;99.90
56103;DHT22;41970;48.774;9.280;2023-08-30T03:04:07;14.90;99.90
56103;DHT22;41970;48.774;9.280;2023-08-30T03:06:33;14.90;99.90
56103;DHT22;41970;48.774;9.280;2023-08-30T03:09:00;14.80;99.90
56103;DHT22;41970;48.774;9.280;2023-08-30T03:11:26;14.80;99.90
56103;DHT22;41970;48.774;9.280;2023-08-30T03:13:53;14.80;99.90
56103;DHT22;41970;48.774;9.280;2023-08-30T03:16:19;14.80;99.90
56103;DHT22;41970;48.774;9.280;2023-08-30T03:18:46;14.70;99.90
56103;DHT22;41970;48.774;9.280;2023-08-30T03:21:12;14.70;99.90
56103;DHT22;41970;48.774;9.280;2023-08-30T03:23:39;14.80;99.90
56103;DHT22;41970;48.774;9.280;2023-08-30T03:26:09;14.70;99.90
56103;DHT22;41970;48.774;9.280;2023-08-30T03:28:35;14.70;99.90
56103;DHT22;41970;48.774;9.280;2023-08-30T03:31:01;14.60;99.90
56103;DHT22;41970;48.774;9.280;2023-08-30T03:33:27;14.50;99.90
56103;DHT22;41970;48.774;9.280;2023-08-30T03:35:52;14.50;99.90
56103;DHT22;41970;48.774;9.280;2023-08-30T03:38:18;14.50;99.90
56103;DHT22;41970;48.774;9.280;2023-08-30T03:40:44;14.50;99.90
56103;DHT22;41970;48.774;9.280;2023-08-30T03:43:10;14.60;99.90
56103;DHT22;41970;48.774;9.280;2023-08-30T03:45:36;14.50;99.90
56103;DHT22;41970;48.774;9.280;2023-08-30T03:48:03;14.50;99.90
56103;DHT22;41970;48.774;9.280;2023-08-30T03:50:29;14.40;99.90
56103;DHT22;41970;48.774;9.280;2023-08-30T03:52:55;14.40;99.90
56103;DHT22;41970;48.774;9.280;2023-08-30T03:55:21;14.40;99.90
56103;DHT22;41970;48.774;9.280;2023-08-30T03:57:48;14.40;99.90
56103;DHT22;41970;48.774;9.280;2023-08-30T04:00:14;14.40;99.90
56103;DHT22;41970;48.774;9.280;2023-08-30T04:02:40;14.40;99.90
56103;DHT22;41970;48.774;9.280;2023-08-30T04:05:06;14.40;99.90
56103;DHT22;41970;48.774;9.280;2023-08-30T04:07:35;14.40;99.90
56103;DHT22;41970;48.774;9.280;2023-08-30T04:10:02;14.50;99.90
56103;DHT22;41970;48.774;9.280;2023-08-30T04:12:31;14.50;99.90
56103;DHT22;41970;48.774;9.280;2023-08-30T04:14:57;14.50;99.90
56103;DHT22;41970;48.774;9.280;2023-08-30T04:17:23;14.50;99.90
56103;DHT22;41970;48.774;9.280;2023-08-30T04:19:52;14.60;99.90
56103;DHT22;41970;48.774;9.280;2023-08-30T04:22:18;14.60;99.90
56103;DHT22;41970;48.774;9.280;2023-08-30T04:24:45;14.50;99.90
56103;DHT22;41970;48.774;9.280;2023-08-30T04:27:11;14.60;99.90
56103;DHT22;41970;48.774;9.280;2023-08-30T04:29:36;14.60;99.90
56103;DHT22;41970;48.774;9.280;2023-08-30T04:32:02;14.60;99.90
56103;DHT22;41970;48.774;9.280;2023-08-30T04:34:28;14.60;99.90
56103;DHT22;41970;48.774;9.280;2023-08-30T04:36:56;14.60;99.90
56103;DHT22;41970;48.774;9.280;2023-08-30T04:39:22;14.60;99.90
56103;DHT22;41970;48.774;9.280;2023-08-30T04:41:47;14.60;99.90
56103;DHT22;41970;48.774;9.280;2023-08-30T04:44:13;14.50;99.90
56103;DHT22;41970;48.774;9.280;2023-08-30T04:46:39;14.60;99.90
56103;DHT22;41970;48.774;9.280;2023-08-30T04:49:04;14.60;99.90
56103;DHT22;41970;48.774;9.280;2023-08-30T04:51:30;14.70;99.90
56103;DHT22;41970;48.774;9.280;2023-08-30T04:53:56;14.70;99.90
56103;DHT22;41970;48.774;9.280;2023-08-30T04:56:23;14.70;99.90
56103;DHT22;41970;48.774;9.280;2023-08-30T04:58:49;14.70;99.90
56103;DHT22;41970;48.774;9.280;2023-08-30T05:01:15;14.80;99.90
56103;DHT22;41970;48.774;9.280;2023-08-30T05:03:42;14.80;99.90
56103;DHT22;41970;48.774;9.280;2023-08-30T05:06:08;14.80;99.90
56103;DHT22;41970;48.774;9.280;2023-08-30T05:08:34;14.90;99.90
56103;DHT22;41970;48.774;9.280;2023-08-30T05:10:59;14.90;99.90
56103;DHT22;41970;48.774;9.280;2023-08-30T05:13:25;14.90;99.90
56103;DHT22;41970;48.774;9.280;2023-08-30T05:15:51;14.80;99.90
56103;DHT22;41970;48.774;9.280;2023-08-30T05:18:19;14.80;99.90
56103;DHT22;41970;48.774;9.280;2023-08-30T05:20:45;14.80;99.90
56103;DHT22;41970;48.774;9.280;2023-08-30T05:23:10;14.80;99.90
56103;DHT22;41970;48.774;9.280;2023-08-30T05:25:36;14.80;99.90
56103;DHT22;41970;48.774;9.280;2023-08-30T05:28:02;14.80;99.90
56103;DHT22;41970;48.774;9.280;2023-08-30T05:30:29;14.80;99.90
56103;DHT22;41970;48.774;9.280;2023-08-30T05:32:54;14.80;99.90
56103;DHT22;41970;48.774;9.280;2023-08-30T05:35:20;14.80;99.90
56103;DHT22;41970;48.774;9.280;2023-08-30T05:37:46;14.80;99.90
56103;DHT22;41970;48.774;9.280;2023-08-30T05:40:13;14.80;99.90
56103;DHT22;41970;48.774;9.280;2023-08-30T05:42:42;14.80;99.90
56103;DHT22;41970;48.774;9.280;2023-08-30T05:45:08;14.80;99.90
56103;DHT22;41970;48.774;9.280;2023-08-30T05:47:34;14.90;99.90
56103;DHT22;41970;48.774;9.280;2023-08-30T05:50:00;14.90;99.90
56103;DHT22;41970;48.774;9.280;2023-08-30T05:52:26;14.90;99.90
56103;DHT22;41970;48.774;9.280;2023-08-30T05:54:51;14.90;99.90
56103;DHT22;41970;48.774;9.280;2023-08-30T05:57:17;14.90;99.90
56103;DHT22;41970;48.774;9.280;2023-08-30T05:59:43;15.00;99.90
56103;DHT22;41970;48.774;9.280;2023-08-30T06:02:09;15.00;99.90
56103;DHT22;41970;48.774;9.280;2023-08-30T06:04:36;15.00;99.90
56103;DHT22;41970;48.774;9.280;2023-08-30T06:07:01;15.00;99.90
56103;DHT22;41970;48.774;9.280;2023-08-30T06:09:28;15.00;99.90
56103;DHT22;41970;48.774;9.280;2023-08-30T06:11:54;14.90;99.90
56103;DHT22;41970;48.774;9.280;2023-08-30T06:14:20;14.90;99.90
56103;DHT22;41970;48.774;9.280;2023-08-30T06:16:46;14.90;99.90
56103;DHT22;41970;48.774;9.280;2023-08-30T06:19:12;14.90;99.90
56103;DHT22;41970;48.774;9.280;2023-08-30T06:21:38;14.80;99.90
56103;DHT22;41970;48.774;9.280;2023-08-30T06:24:04;14.70;99.90
56103;DHT22;41970;48.774;9.280;2023-08-30T06:26:29;14.70;99.90
56103;DHT22;41970;48.774;9.280;2023-08-30T06:28:55;14.70;99.90
56103;DHT22;41970;48.774;9.280;2023-08-30T06:31:21;14.70;99.90
56103;DHT22;41970;48.774;9.280;2023-08-30T06:33:47;14.70;99.90
56103;DHT22;41970;48.774;9.280;2023-08-30T06:36:14;14.60;99.90
56103;DHT22;41970;48.774;9.280;2023-08-30T06:38:42;14.70;99.90
56103;DHT22;41970;48.774;9.280;2023-08-30T06:41:08;14.70;99.90
56103;DHT22;41970;48.774;9.280;2023-08-30T06:43:34;14.70;99.90
56103;DHT22;41970;48.774;9.280;2023-08-30T06:45:59;14.70;99.90
56103;DHT22;41970;48.774;9.280;2023-08-30T06:48:26;14.60;99.90
56103;DHT22;41970;48.774;9.280;2023-08-30T06:50:52;14.70;99.90
56103;DHT22;41970;48.774;9.280;2023-08-30T06:53:17;14.80;99.90
56103;DHT22;41970;48.774;9.280;2023-08-30T06:55:43;14.90;99.90
56103;DHT22;41970;48.774;9.280;2023-08-30T06:58:09;14.90;99.90
56103;DHT22;41970;48.774;9.280;2023-08-30T07:00:34;14.80;99.90
56103;DHT22;41970;48.774;9.280;2023-08-30T07:03:00;14.70;99.90
56103;DHT22;41970;48.774;9.280;2023-08-30T07:05:26;14.60;99.90
56103;DHT22;41970;48.774;9.280;2023-08-30T07:07:52;14.70;99.90
56103;DHT22;41970;48.774;9.280;2023-08-30T07:10:17;14.70;99.90
56103;DHT22;41970;48.774;9.280;2023-08-30T07:12:43;14.70;99.90
56103;DHT22;41970;48.774;9.280;2023-08-30T07:15:10;14.70;99.90
56103;DHT22;41970;48.774;9.280;2023-08-30T07:17:36;14.60;99.90
56103;DHT22;41970;48.774;9.280;2023-08-30T07:20:02;14.60;99.90
56103;DHT22;41970;48.774;9.280;2023-08-30T07:22:30;14.60;99.90
56103;DHT22;41970;48.774;9.280;2023-08-30T07:24:56;14.80;99.90
56103;DHT22;41970;48.774;9.280;2023-08-30T07:27:21;14.90;99.90
56103;DHT22;41970;48.774;9.280;2023-08-30T07:29:47;15.10;99.90
56103;DHT22;41970;48.774;9.280;2023-08-30T07:32:13;15.20;99.90
56103;DHT22;41970;48.774;9.280;2023-08-30T07:34:39;15.40;99.90
56103;DHT22;41970;48.774;9.280;2023-08-30T07:37:05;15.50;99.90
56103;DHT22;41970;48.774;9.280;2023-08-30T07:39:30;15.60;99.90
56103;DHT22;41970;48.774;9.280;2023-08-30T07:41:56;15.60;99.90
56103;DHT22;41970;48.774;9.280;2023-08-30T07:44:22;15.60;99.90
56103;DHT22;41970;48.774;9.280;2023-08-30T07:46:48;15.60;99.90
56103;DHT22;41970;48.774;9.280;2023-08-30T07:49:14;15.50;99.90
56103;DHT22;41970;48.774;9.280;2023-08-30T07:51:40;15.30;99.90
56103;DHT22;41970;48.774;9.280;2023-08-30T07:54:05;15.40;99.90
56103;DHT22;41970;48.774;9.280;2023-08-30T07:56:31;15.50;99.90
56103;DHT22;41970;48.774;9.280;2023-08-30T07:58:57;15.70;99.90
56103;DHT22;41970;48.774;9.280;2023-08-30T08:01:23;15.70;99.90
56103;DHT22;41970;48.774;9.280;2023-08-30T08:03:49;15.60;99.90
56103;DHT22;41970;48.774;9.280;2023-08-30T08:06:14;15.30;99.90
56103;DHT22;41970;48.774;9.280;2023-08-30T08:08:40;15.20;99.90
56103;DHT22;41970;48.774;9.280;2023-08-30T08:11:06;15.30;99.90
56103;DHT22;41970;48.774;9.280;2023-08-30T08:13:31;15.20;99.90
56103;DHT22;41970;48.774;9.280;2023-08-30T08:15:57;15.00;99.90
56103;DHT22;41970;48.774;9.280;2023-08-30T08:18:23;15.00;99.90
56103;DHT22;41970;48.774;9.280;2023-08-30T08:20:50;14.90;99.90
56103;DHT22;41970;48.774;9.280;2023-08-30T08:23:15;14.90;99.90
56103;DHT22;41970;48.774;9.280;2023-08-30T08:25:41;15.00;99.90
56103;DHT22;41970;48.774;9.280;2023-08-30T08:28:07;15.00;99.90
56103;DHT22;41970;48.774;9.280;2023-08-30T08:30:33;15.00;99.90
56103;DHT22;41970;48.774;9.280;2023-08-30T08:32:58;15.00;99.90
56103;DHT22;41970;48.774;9.280;2023-08-30T08:35:25;14.90;99.90
56103;DHT22;41970;48.774;9.280;2023-08-30T08:37:51;15.00;99.90
56103;DHT22;41970;48.774;9.280;2023-08-30T08:40:17;15.00;99.90
56103;DHT22;41970;48.774;9.280;2023-08-30T08:42:43;15.00;99.90
56103;DHT22;41970;48.774;9.280;2023-08-30T08:45:10;15.10;99.90
56103;DHT22;41970;48.774;9.280;2023-08-30T08:47:36;15.20;99.90
56103;DHT22;41970;48.774;9.280;2023-08-30T08:50:03;15.20;99.90
56103;DHT22;41970;48.774;9.280;2023-08-30T08:52:29;15.20;99.90
56103;DHT22;41970;48.774;9.280;2023-08-30T08:54:55;15.20;99.90
56103;DHT22;41970;48.774;9.280;2023-08-30T08:57:22;15.20;99.90
56103;DHT22;41970;48.774;9.280;2023-08-30T08:59:48;15.20;99.90
56103;DHT22;41970;48.774;9.280;2023-08-30T09:02:15;15.30;99.90
56103;DHT22;41970;48.774;9.280;2023-08-30T09:04:41;15.20;99.90
56103;DHT22;41970;48.774;9.280;2023-08-30T09:07:06;15.30;99.90
56103;DHT22;41970;48.774;9.280;2023-08-30T09:09:36;15.30;99.90
56103;DHT22;41970;48.774;9.280;2023-08-30T09:12:02;15.40;99.90
56103;DHT22;41970;48.774;9.280;2023-08-30T09:14:28;15.50;99.90
56103;DHT22;41970;48.774;9.280;2023-08-30T09:17:03;15.60;99.90
56103;DHT22;41970;48.774;9.280;2023-08-30T09:19:29;15.70;99.90
56103;DHT22;41970;48.774;9.280;2023-08-30T09:21:57;15.90;99.90
56103;DHT22;41970;48.774;9.280;2023-08-30T09:24:24;16.10;99.90
56103;DHT22;41970;48.774;9.280;2023-08-30T09:26:51;16.30;99.90
56103;DHT22;41970;48.774;9.280;2023-08-30T09:29:19;16.30;99.90
56103;DHT22;41970;48.774;9.280;2023-08-30T09:31:45;16.40;99.90
56103;DHT22;41970;48.774;9.280;2023-08-30T09:34:11;16.70;99.90
56103;DHT22;41970;48.774;9.280;2023-08-30T09:36:41;16.80;99.90
56103;DHT22;41970;48.774;9.280;2023-08-30T09:41:35;16.90;99.90
56103;DHT22;41970;48.774;9.280;2023-08-30T09:44:07;16.90;99.90
56103;DHT22;41970;48.774;9.280;2023-08-30T09:46:43;16.90;99.90
56103;DHT22;41970;48.774;9.280;2023-08-30T09:49:10;16.90;99.90
56103;DHT22;41970;48.774;9.280;2023-08-30T09:51:38;17.20;99.90
56103;DHT22;41970;48.774;9.280;2023-08-30T09:54:43;17.50;99.90
56103;DHT22;41970;48.774;9.280;2023-08-30T09:57:07;17.70;99.90
56103;DHT22;41970;48.774;9.280;2023-08-30T09:59:33;17.80;99.90
56103;DHT22;41970;48.774;9.280;2023-08-30T10:01:59;17.80;99.90
56103;DHT22;41970;48.774;9.280;2023-08-30T10:04:28;17.70;99.90
56103;DHT22;41970;48.774;9.280;2023-08-30T10:06:55;17.80;99.90
56103;DHT22;41970;48.774;9.280;2023-08-30T10:09:24;18.10;99.90
56103;DHT22;41970;48.774;9.280;2023-08-30T10:11:50;18.40;99.90
56103;DHT22;41970;48.774;9.280;2023-08-30T10:14:16;18.50;99.90
56103;DHT22;41970;48.774;9.280;2023-08-30T10:16:44;18.70;99.90
56103;DHT22;41970;48.774;9.280;2023-08-30T10:19:17;18.70;99.90
56103;DHT22;41970;48.774;9.280;2023-08-30T10:21:48;18.80;99.90
56103;DHT22;41970;48.774;9.280;2023-08-30T10:24:17;19.00;99.90
56103;DHT22;41970;48.774;9.280;2023-08-30T10:26:46;19.20;99.90
56103;DHT22;41970;48.774;9.280;2023-08-30T10:29:13;19.30;99.90
56103;DHT22;41970;48.774;9.280;2023-08-30T10:31:41;19.40;99.90
56103;DHT22;41970;48.774;9.280;2023-08-30T10:34:17;19.60;99.90
56103;DHT22;41970;48.774;9.280;2023-08-30T10:36:44;19.60;99.90
56103;DHT22;41970;48.774;9.280;2023-08-30T10:39:14;19.50;99.90
56103;DHT22;41970;48.774;9.280;2023-08-30T10:42:10;19.50;99.90
56103;DHT22;41970;48.774;9.280;2023-08-30T10:44:48;19.30;99.90
56103;DHT22;41970;48.774;9.280;2023-08-30T10:49:49;18.90;99.90
56103;DHT22;41970;48.774;9.280;2023-08-30T10:52:15;19.30;99.90
56103;DHT22;41970;48.774;9.280;2023-08-30T10:54:41;19.50;99.90
56103;DHT22;41970;48.774;9.280;2023-08-30T10:57:17;19.40;99.90
56103;DHT22;41970;48.774;9.280;2023-08-30T11:00:05;19.10;99.90
56103;DHT22;41970;48.774;9.280;2023-08-30T11:02:36;18.90;99.90
56103;DHT22;41970;48.774;9.280;2023-08-30T11:05:04;18.90;99.90
56103;DHT22;41970;48.774;9.280;2023-08-30T11:07:31;18.80;99.90
56103;DHT22;41970;48.774;9.280;2023-08-30T11:09:57;18.80;99.90
56103;DHT22;41970;48.774;9.280;2023-08-30T11:12:23;18.80;99.90
56103;DHT22;41970;48.774;9.280;2023-08-30T11:14:52;18.90;99.90
56103;DHT22;41970;48.774;9.280;2023-08-30T11:17:21;18.80;99.90
56103;DHT22;41970;48.774;9.280;2023-08-30T11:19:50;18.70;99.90
56103;DHT22;41970;48.774;9.280;2023-08-30T11:22:17;18.70;99.90
56103;DHT22;41970;48.774;9.280;2023-08-30T11:24:43;18.80;99.90
56103;DHT22;41970;48.774;9.280;2023-08-30T11:27:09;19.10;99.90
56103;DHT22;41970;48.774;9.280;2023-08-30T11:29:35;19.30;99.90
56103;DHT22;41970;48.774;9.280;2023-08-30T11:32:01;19.30;99.90
56103;DHT22;41970;48.774;9.280;2023-08-30T11:34:27;19.50;99.90
56103;DHT22;41970;48.774;9.280;2023-08-30T11:36:53;19.40;99.90
56103;DHT22;41970;48.774;9.280;2023-08-30T11:39:19;19.40;99.90
56103;DHT22;41970;48.774;9.280;2023-08-30T11:41:48;19.60;99.90
56103;DHT22;41970;48.774;9.280;2023-08-30T11:44:13;19.80;99.90
56103;DHT22;41970;48.774;9.280;2023-08-30T11:46:39;19.80;99.90
56103;DHT22;41970;48.774;9.280;2023-08-30T11:49:05;19.80;99.90
56103;DHT22;41970;48.774;9.280;2023-08-30T11:51:31;20.00;99.90
56103;DHT22;41970;48.774;9.280;2023-08-30T11:53:58;20.10;99.90
56103;DHT22;41970;48.774;9.280;2023-08-30T11:56:24;20.30;99.90
56103;DHT22;41970;48.774;9.280;2023-08-30T11:58:50;20.50;99.90
56103;DHT22;41970;48.774;9.280;2023-08-30T12:01:18;20.50;99.90
56103;DHT22;41970;48.774;9.280;2023-08-30T12:03:45;20.60;99.90
56103;DHT22;41970;48.774;9.280;2023-08-30T12:06:16;20.60;99.90
56103;DHT22;41970;48.774;9.280;2023-08-30T12:08:42;20.50;99.90
56103;DHT22;41970;48.774;9.280;2023-08-30T12:11:18;20.50;99.90
56103;DHT22;41970;48.774;9.280;2023-08-30T12:13:44;20.30;99.90
56103;DHT22;41970;48.774;9.280;2023-08-30T12:16:15;20.20;99.90
56103;DHT22;41970;48.774;9.280;2023-08-30T12:18:41;20.00;99.90
56103;DHT22;41970;48.774;9.280;2023-08-30T12:21:07;19.80;99.90
56103;DHT22;41970;48.774;9.280;2023-08-30T12:23:33;19.60;99.90
56103;DHT22;41970;48.774;9.280;2023-08-30T12:26:04;19.40;99.90
56103;DHT22;41970;48.774;9.280;2023-08-30T12:28:34;19.30;99.90
56103;DHT22;41970;48.774;9.280;2023-08-30T12:31:01;19.20;99.90
56103;DHT22;41970;48.774;9.280;2023-08-30T12:33:27;19.20;99.90
56103;DHT22;41970;48.774;9.280;2023-08-30T12:35:56;19.20;99.90
56103;DHT22;41970;48.774;9.280;2023-08-30T12:38:22;19.20;99.90
56103;DHT22;41970;48.774;9.280;2023-08-30T12:40:50;18.90;99.90
56103;DHT22;41970;48.774;9.280;2023-08-30T12:43:17;18.60;99.90
56103;DHT22;41970;48.774;9.280;2023-08-30T12:45:43;18.30;99.90
56103;DHT22;41970;48.774;9.280;2023-08-30T12:48:11;18.00;99.90
56103;DHT22;41970;48.774;9.280;2023-08-30T12:50:38;17.90;99.90
56103;DHT22;41970;48.774;9.280;2023-08-30T12:53:05;17.70;99.90
56103;DHT22;41970;48.774;9.280;2023-08-30T12:55:31;17.70;99.90
56103;DHT22;41970;48.774;9.280;2023-08-30T12:57:57;17.60;99.90
56103;DHT22;41970;48.774;9.280;2023-08-30T13:00:24;17.50;99.90
56103;DHT22;41970;48.774;9.280;2023-08-30T13:02:50;17.40;99.90
56103;DHT22;41970;48.774;9.280;2023-08-30T13:05:16;17.40;99.90
56103;DHT22;41970;48.774;9.280;2023-08-30T13:07:42;17.50;99.90
56103;DHT22;41970;48.774;9.280;2023-08-30T13:10:09;17.80;99.90
56103;DHT22;41970;48.774;9.280;2023-08-30T13:12:35;17.60;99.90
56103;DHT22;41970;48.774;9.280;2023-08-30T13:15:01;17.40;99.90
56103;DHT22;41970;48.774;9.280;2023-08-30T13:17:27;17.50;99.90
56103;DHT22;41970;48.774;9.280;2023-08-30T13:19:53;17.60;99.90
56103;DHT22;41970;48.774;9.280;2023-08-30T13:22:19;17.80;99.90
56103;DHT22;41970;48.774;9.280;2023-08-30T13:24:45;17.70;99.90
56103;DHT22;41970;48.774;9.280;2023-08-30T13:27:10;17.70;99.90
56103;DHT22;41970;48.774;9.280;2023-08-30T13:29:37;17.90;99.90
56103;DHT22;41970;48.774;9.280;2023-08-30T13:32:02;18.20;99.90
56103;DHT22;41970;48.774;9.280;2023-08-30T13:34:28;18.50;99.90
56103;DHT22;41970;48.774;9.280;2023-08-30T13:36:54;18.70;99.90
56103;DHT22;41970;48.774;9.280;2023-08-30T13:39:20;18.90;99.90
56103;DHT22;41970;48.774;9.280;2023-08-30T13:41:46;19.00;99.90
56103;DHT22;41970;48.774;9.280;2023-08-30T13:44:13;19.10;99.90
56103;DHT22;41970;48.774;9.280;2023-08-30T13:46:39;19.20;99.90
56103;DHT22;41970;48.774;9.280;2023-08-30T13:49:05;19.30;99.90
56103;DHT22;41970;48.774;9.280;2023-08-30T13:51:30;19.30;99.90
56103;DHT22;41970;48.774;9.280;2023-08-30T13:53:56;19.40;99.90
56103;DHT22;41970;48.774;9.280;2023-08-30T13:56:22;19.40;99.90
56103;DHT22;41970;48.774;9.280;2023-08-30T13:58:48;19.50;99.90
56103;DHT22;41970;48.774;9.280;2023-08-30T14:01:15;19.50;99.90
56103;DHT22;41970;48.774;9.280;2023-08-30T14:03:40;19.60;99.90
56103;DHT22;41970;48.774;9.280;2023-08-30T14:06:06;19.70;99.90
56103;DHT22;41970;48.774;9.280;2023-08-30T14:08:32;19.70;99.90
56103;DHT22;41970;48.774;9.280;2023-08-30T14:10:58;19.80;99.90
56103;DHT22;41970;48.774;9.280;2023-08-30T14:13:24;19.50;99.90
56103;DHT22;41970;48.774;9.280;2023-08-30T14:15:49;19.40;99.90
56103;DHT22;41970;48.774;9.280;2023-08-30T14:18:15;19.40;99.90
56103;DHT22;41970;48.774;9.280;2023-08-30T14:20:42;19.70;99.90
56103;DHT22;41970;48.774;9.280;2023-08-30T14:23:09;19.90;99.90
56103;DHT22;41970;48.774;9.280;2023-08-30T14:25:35;19.50;99.90
56103;DHT22;41970;48.774;9.280;2023-08-30T14:28:01;19.30;99.90
56103;DHT22;41970;48.774;9.280;2023-08-30T14:30:28;19.10;99.90
56103;DHT22;41970;48.774;9.280;2023-08-30T14:32:53;19.00;99.90
56103;DHT22;41970;48.774;9.280;2023-08-30T14:35:19;18.90;99.90
56103;DHT22;41970;48.774;9.280;2023-08-30T14:37:50;18.80;99.90
56103;DHT22;41970;48.774;9.280;2023-08-30T14:40:16;19.00;99.90
56103;DHT22;41970;48.774;9.280;2023-08-30T14:42:42;19.00;99.90
56103;DHT22;41970;48.774;9.280;2023-08-30T14:45:08;19.20;99.90
56103;DHT22;41970;48.774;9.280;2023-08-30T14:47:34;19.20;99.90
56103;DHT22;41970;48.774;9.280;2023-08-30T14:50:00;19.40;99.90
56103;DHT22;41970;48.774;9.280;2023-08-30T14:52:28;19.60;99.90
56103;DHT22;41970;48.774;9.280;2023-08-30T14:54:54;19.80;99.90
56103;DHT22;41970;48.774;9.280;2023-08-30T14:57:20;19.90;99.90
56103;DHT22;41970;48.774;9.280;2023-08-30T14:59:47;20.00;99.90
56103;DHT22;41970;48.774;9.280;2023-08-30T15:02:12;20.00;99.90
56103;DHT22;41970;48.774;9.280;2023-08-30T15:04:39;20.00;99.90
56103;DHT22;41970;48.774;9.280;2023-08-30T15:07:05;20.00;99.90
56103;DHT22;41970;48.774;9.280;2023-08-30T15:09:31;20.10;99.90
56103;DHT22;41970;48.774;9.280;2023-08-30T15:11:57;20.20;99.90
56103;DHT22;41970;48.774;9.280;2023-08-30T15:14:26;20.20;99.90
56103;DHT22;41970;48.774;9.280;2023-08-30T15:16:52;20.20;99.90
56103;DHT22;41970;48.774;9.280;2023-08-30T15:19:18;20.10;99.90
56103;DHT22;41970;48.774;9.280;2023-08-30T15:21:45;19.80;99.90
56103;DHT22;41970;48.774;9.280;2023-08-30T15:24:11;19.30;99.90
56103;DHT22;41970;48.774;9.280;2023-08-30T15:26:38;19.00;99.90
56103;DHT22;41970;48.774;9.280;2023-08-30T15:29:04;18.90;99.90
56103;DHT22;41970;48.774;9.280;2023-08-30T15:31:30;18.80;99.90
56103;DHT22;41970;48.774;9.280;2023-08-30T15:33:56;18.70;99.90
56103;DHT22;41970;48.774;9.280;2023-08-30T15:36:21;18.80;99.90
56103;DHT22;41970;48.774;9.280;2023-08-30T15:38:47;19.10;99.90
56103;DHT22;41970;48.774;9.280;2023-08-30T15:41:13;19.40;99.90
56103;DHT22;41970;48.774;9.280;2023-08-30T15:43:39;19.50;99.90